Bolton, MS (39041)

12:37 PM CST on December 06, 2016 (GMT -0600)
Countrywood | | Change Station

Elev 338 ft 32.32 °N, 90.34 °W | Updated 54 seconds ago

Overcast
Overcast
52.2 °F
Feels Like 52.2 °F
N
2.7
Wind Variable Wind from West
Gusts 4.9 mph

Today
High -- | Low -- °F
--% Chance of Precip.
Yesterday
High -- | Low -- °F
Precip. -- in
Pressure 29.91 in
Visibility 10.0 miles
Clouds Overcast 1000 ft
Dew Point 51 °F
Humidity 96%
Rainfall 0.00 in
Snow Depth Not available.
6:49 AM 4:56 PM
Waxing Crescent, 44% visible
METAR KHKS 061753Z 29006KT 10SM OVC010 11/09 A2993 RMK AO2 SLP128 T01110089 10111 20100 50013
Pressure 29.91 in
Visibility 10.0 miles
Clouds Overcast 1000 ft
Dew Point 51 °F
Humidity 96%
Rainfall 0.00 in
Snow Depth Not available.
6:49 AM 4:56 PM
Waxing Crescent, 44% visible
METAR KHKS 061753Z 29006KT 10SM OVC010 11/09 A2993 RMK AO2 SLP128 T01110089 10111 20100 50013

10-Day Weather Forecast

Almanac

Astronomy

Dec. 06, 2016 Rise Set
Actual Time
Civil Twilight
Nautical Twilight
Astronomical Twilight
Moon
Length of Visible Light
Length of Day
Tomorrow will be .
, % of the Moon is Illuminated

Today's Extremes

State Highs State Lows

Community

WunderPhotos

Upload Photos

1,955,999 photos uploaded!

WunderBlog® & News

Nearby

Air Quality

  Air Quality AQ Index Pollutant
Not available.

Snow Depth

Station Depth Elevation

Earthquake Activity

City Distance Mag. Time & Date
Minimum magnitude displayed is 2.5.

Coastal Water Temperatures

Place Temperature

Stations

Nearby Weather Stations

Station Location Temp. Windchill Dew Point Humidity Wind Precip. Elev Updated Type
                   

Watches & Warnings

There are currently no watches in effect.